Time;durP1;ratioP1;P1;durP2;ratioP2;P2;SDS_P1;SDS_P2;PMS_P1;PMS_P2;Temp;Humidity;BMP_temperature;BMP_pressure;BME280_temperature;BME280_humidity;BME280_pressure;Samples;Min_cycle;Max_cycle;Signal;HPM_P1;HPM_P2
2023/10/31 00:01:21;;;;;;;7.97;3.70;;;;;;;17.98;90.37;99801.78;4952151;28;20132;-78
2023/10/31 00:03:51;;;;;;;13.32;3.85;;;;;;;17.95;90.33;99780.72;4996788;28;20076;-77
2023/10/31 00:06:18;;;;;;;9.77;3.38;;;;;;;17.90;91.68;99788.56;4980416;28;20390;-78
2023/10/31 00:08:45;;;;;;;6.63;2.53;;;;;;;18.03;89.75;99793.94;4990231;28;20049;-80
2023/10/31 00:11:12;;;;;;;6.63;3.08;;;;;;;18.20;87.46;99825.78;4967943;28;20052;-79
2023/10/31 00:13:39;;;;;;;4.85;2.33;;;;;;;17.88;87.32;99755.72;4973800;28;20069;-79
2023/10/31 00:16:06;;;;;;;6.63;2.78;;;;;;;18.06;89.17;99787.31;4973121;28;20506;-79
2023/10/31 00:18:33;;;;;;;9.93;3.50;;;;;;;18.06;89.53;99798.91;4978367;28;20073;-78
2023/10/31 00:21:00;;;;;;;8.15;3.13;;;;;;;17.86;90.63;99798.84;4943404;28;20054;-80
2023/10/31 00:23:27;;;;;;;6.25;2.97;;;;;;;17.83;89.79;99790.41;4962798;28;20238;-80
2023/10/31 00:25:53;;;;;;;5.18;2.75;;;;;;;17.68;90.08;99753.78;4961493;28;20108;-78
2023/10/31 00:28:20;;;;;;;6.63;3.00;;;;;;;18.02;89.30;99797.66;4962138;28;20389;-80
2023/10/31 00:30:47;;;;;;;8.05;3.53;;;;;;;17.52;88.32;99711.22;4976366;28;20042;-80
2023/10/31 00:33:14;;;;;;;12.63;3.30;;;;;;;18.11;88.33;99801.81;4990762;28;20055;-79
2023/10/31 00:35:43;;;;;;;10.35;3.30;;;;;;;18.13;88.01;99807.81;4982182;28;20103;-79
2023/10/31 00:38:09;;;;;;;8.40;3.03;;;;;;;18.07;87.99;99794.38;4972902;28;20418;-79
2023/10/31 00:40:36;;;;;;;7.82;2.53;;;;;;;18.24;87.11;99805.53;4968124;28;20135;-79
2023/10/31 00:43:04;;;;;;;6.28;2.40;;;;;;;18.17;86.51;99783.22;4978641;28;20049;-80
2023/10/31 00:45:30;;;;;;;6.72;2.70;;;;;;;18.27;85.42;99779.06;4975318;28;20548;-78
2023/10/31 00:48:00;;;;;;;8.50;2.80;;;;;;;18.47;84.42;99778.22;4961592;28;20393;-78
2023/10/31 00:50:28;;;;;;;6.45;2.85;;;;;;;18.53;83.35;99764.78;4956706;28;20140;-79
2023/10/31 00:52:55;;;;;;;6.70;2.20;;;;;;;18.64;82.24;99784.00;4973077;28;20354;-78
2023/10/31 00:55:26;;;;;;;5.75;2.40;;;;;;;18.58;82.06;99767.69;4957095;28;20149;-79
2023/10/31 00:57:52;;;;;;;6.43;2.30;;;;;;;18.52;80.63;99763.16;4961102;28;20144;-80
2023/10/31 01:00:20;;;;;;;8.02;2.20;;;;;;;18.45;81.08;99774.97;4961008;28;20125;-80
2023/10/31 01:02:48;;;;;;;9.18;1.63;;;;;;;18.45;81.58;99791.91;4959212;28;20108;-80
2023/10/31 01:05:15;;;;;;;6.78;2.05;;;;;;;18.25;82.99;99774.94;4969420;28;20050;-79
2023/10/31 01:07:42;;;;;;;7.38;2.25;;;;;;;18.28;83.14;99774.53;4950021;28;20378;-79
2023/10/31 01:10:11;;;;;;;8.60;2.20;;;;;;;18.26;81.86;99768.56;4957662;28;20045;-80
2023/10/31 01:12:39;;;;;;;4.43;2.10;;;;;;;18.17;82.28;99756.34;4967477;28;20068;-79
2023/10/31 01:15:06;;;;;;;3.78;1.70;;;;;;;18.21;82.27;99779.09;4960070;28;20049;-78
2023/10/31 01:17:36;;;;;;;5.45;2.15;;;;;;;18.23;83.30;99787.75;4945838;28;20109;-79
2023/10/31 01:20:06;;;;;;;6.70;2.00;;;;;;;18.24;83.12;99797.47;4936046;28;20085;-78
2023/10/31 01:22:35;;;;;;;4.93;2.20;;;;;;;18.34;82.47;99792.50;4935316;28;20370;-79
2023/10/31 01:25:07;;;;;;;4.43;1.85;;;;;;;18.21;82.29;99801.41;4925875;28;20055;-80
2023/10/31 01:27:38;;;;;;;7.80;1.95;;;;;;;18.04;83.74;99792.91;4934091;28;20405;-80
2023/10/31 01:30:11;;;;;;;7.63;2.00;;;;;;;17.60;84.59;99729.84;4938137;28;20761;-79
2023/10/31 01:32:43;;;;;;;9.43;2.15;;;;;;;17.85;84.33;99764.19;4927313;28;20050;-79
2023/10/31 01:35:10;;;;;;;3.75;1.80;;;;;;;17.61;84.67;99719.91;4964743;28;20058;-79
2023/10/31 01:37:37;;;;;;;5.70;1.95;;;;;;;17.97;84.18;99767.91;4945478;28;20081;-79
2023/10/31 01:40:07;;;;;;;5.43;2.33;;;;;;;17.96;83.25;99747.44;4955841;28;20467;-79
2023/10/31 01:42:36;;;;;;;4.93;2.30;;;;;;;17.80;83.06;99743.31;4964657;28;20050;-80
2023/10/31 01:45:08;;;;;;;8.60;2.03;;;;;;;17.87;83.35;99772.88;4976042;28;20136;-80
2023/10/31 01:47:35;;;;;;;6.80;2.53;;;;;;;17.77;83.86;99772.38;4953959;28;20049;-80
2023/10/31 01:50:02;;;;;;;4.35;2.28;;;;;;;17.67;84.22;99752.16;4942156;28;20049;-78
2023/10/31 01:52:32;;;;;;;6.30;2.67;;;;;;;17.55;84.53;99743.03;4944502;28;20056;-80
2023/10/31 01:55:01;;;;;;;7.07;2.10;;;;;;;17.64;84.55;99774.00;4961014;28;20127;-79
2023/10/31 01:57:28;;;;;;;7.43;2.70;;;;;;;17.47;85.38;99751.25;4958482;28;20061;-80
2023/10/31 01:59:59;;;;;;;9.90;2.80;;;;;;;17.46;85.54;99760.34;4968477;28;20092;-80
2023/10/31 02:02:32;;;;;;;14.07;2.83;;;;;;;17.41;86.00;99773.53;4961632;28;20833;-79
2023/10/31 02:05:00;;;;;;;8.77;2.22;;;;;;;17.45;86.11;99769.41;4977844;28;20089;-78
2023/10/31 02:07:26;;;;;;;9.02;2.95;;;;;;;17.27;85.51;99751.19;4978676;28;20050;-79
2023/10/31 02:09:53;;;;;;;8.07;2.90;;;;;;;17.39;86.35;99781.78;4981249;28;20404;-79
2023/10/31 02:12:37;;;;;;;3.95;2.42;;;;;;;17.08;86.64;99742.84;4983134;28;20566;-80
2023/10/31 02:15:05;;;;;;;5.45;3.28;;;;;;;17.30;86.43;99791.03;4968682;28;20485;-78
2023/10/31 02:17:32;;;;;;;8.85;2.95;;;;;;;17.25;87.41;99780.88;4960074;28;20066;-80
2023/10/31 02:19:59;;;;;;;5.40;2.45;;;;;;;16.96;87.48;99732.91;4973746;28;20104;-79
2023/10/31 02:22:25;;;;;;;5.20;3.00;;;;;;;17.04;87.02;99749.66;4961034;28;20419;-80
2023/10/31 02:24:53;;;;;;;4.07;2.78;;;;;;;17.07;86.63;99757.31;4960359;28;20085;-80
2023/10/31 02:27:20;;;;;;;3.83;2.25;;;;;;;17.17;87.28;99773.03;4962364;28;20053;-80
2023/10/31 02:29:47;;;;;;;7.10;2.55;;;;;;;16.91;86.82;99736.19;4984747;28;20490;-79
2023/10/31 02:32:14;;;;;;;5.88;2.53;;;;;;;16.93;86.08;99760.13;4975953;28;20112;-80
2023/10/31 02:34:40;;;;;;;4.85;2.63;;;;;;;16.58;86.46;99685.06;4980631;28;20050;-79
2023/10/31 02:37:07;;;;;;;4.60;2.00;;;;;;;17.43;85.92;99766.13;4976586;28;20054;-80
2023/10/31 02:39:35;;;;;;;4.75;2.13;;;;;;;17.51;83.88;99741.78;4970619;28;20046;-79
2023/10/31 02:42:02;;;;;;;5.18;1.70;;;;;;;17.63;83.14;99739.34;4969396;28;20258;-79
2023/10/31 02:44:32;;;;;;;2.28;1.77;;;;;;;17.77;82.89;99742.84;4969642;28;20054;-80
2023/10/31 02:46:59;;;;;;;7.70;1.88;;;;;;;18.04;82.56;99741.88;4979500;28;20108;-79
2023/10/31 02:49:26;;;;;;;3.72;2.30;;;;;;;17.24;81.09;99586.13;4957443;28;20053;-79
2023/10/31 02:51:57;;;;;;;10.50;2.75;;;;;;;18.22;78.92;99735.06;4971051;28;20061;-80
2023/10/31 02:54:24;;;;;;;4.43;2.15;;;;;;;17.97;80.39;99679.28;4972784;28;20480;-82
2023/10/31 02:56:51;;;;;;;7.45;2.45;;;;;;;18.15;79.21;99703.66;4955163;28;20045;-80
2023/10/31 02:59:23;;;;;;;4.82;2.08;;;;;;;18.14;80.08;99704.69;4964242;28;20469;-79
2023/10/31 03:01:50;;;;;;;5.05;1.90;;;;;;;18.21;79.92;99693.13;4966151;28;20650;-80
2023/10/31 03:04:22;;;;;;;6.55;2.20;;;;;;;18.13;80.37;99695.00;4967639;28;20351;-80
2023/10/31 03:06:49;;;;;;;7.45;2.25;;;;;;;18.10;80.58;99699.94;4957444;28;20147;-79
2023/10/31 03:09:16;;;;;;;3.88;1.95;;;;;;;18.12;80.22;99693.31;4963735;28;20837;-80
2023/10/31 03:11:43;;;;;;;5.00;2.03;;;;;;;18.06;79.78;99658.41;4959237;28;20042;-79
2023/10/31 03:14:10;;;;;;;6.25;2.17;;;;;;;18.36;79.37;99707.16;4969678;28;20614;-80
2023/10/31 03:16:38;;;;;;;10.48;2.00;;;;;;;18.52;78.89;99695.13;4976992;28;20046;-80
2023/10/31 03:19:05;;;;;;;4.55;2.10;;;;;;;18.42;77.57;99700.94;4969938;28;20404;-80
2023/10/31 03:21:32;;;;;;;6.30;1.88;;;;;;;18.57;77.64;99725.72;4941532;28;20053;-79
2023/10/31 03:23:59;;;;;;;4.68;1.80;;;;;;;18.63;76.87;99712.47;4955811;28;20120;-80
2023/10/31 03:26:31;;;;;;;5.13;2.10;;;;;;;18.56;76.66;99718.69;4960410;28;20049;-79
2023/10/31 03:28:58;;;;;;;3.92;1.70;;;;;;;18.56;77.61;99707.09;4963021;28;20451;-80
2023/10/31 03:31:25;;;;;;;5.40;1.45;;;;;;;18.59;77.39;99701.31;4971693;28;20046;-79
2023/10/31 03:33:53;;;;;;;4.57;1.80;;;;;;;18.70;77.23;99703.34;4975137;28;20445;-79
2023/10/31 03:36:20;;;;;;;7.38;2.15;;;;;;;18.72;76.49;99700.47;4966020;28;20427;-80
2023/10/31 03:38:46;;;;;;;6.15;2.00;;;;;;;18.66;75.52;99669.84;4972258;28;20542;-79
2023/10/31 03:41:13;;;;;;;7.32;1.70;;;;;;;18.58;76.19;99648.59;4976511;28;20045;-81
2023/10/31 03:43:40;;;;;;;5.00;1.58;;;;;;;18.64;76.20;99655.81;4970695;28;20046;-77
2023/10/31 03:46:11;;;;;;;6.03;1.95;;;;;;;18.64;76.24;99649.59;4967285;28;20244;-79
2023/10/31 03:48:38;;;;;;;8.00;1.80;;;;;;;18.67;74.99;99679.59;4949861;28;20049;-79
2023/10/31 03:51:13;;;;;;;2.40;1.60;;;;;;;18.65;75.69;99673.59;4951178;28;20312;-79
2023/10/31 03:53:39;;;;;;;6.07;1.83;;;;;;;18.65;76.81;99678.16;4958881;28;20057;-79
2023/10/31 03:56:09;;;;;;;4.15;1.40;;;;;;;18.61;76.16;99645.47;4926858;28;20379;-78
2023/10/31 03:58:42;;;;;;;2.15;1.40;;;;;;;18.52;75.82;99603.75;4945333;28;20133;-79
2023/10/31 04:01:09;;;;;;;7.78;1.70;;;;;;;18.86;75.61;99636.72;4950005;28;20042;-79
2023/10/31 04:03:44;;;;;;;4.80;1.77;;;;;;;18.90;74.29;99652.22;4958000;28;20088;-79
2023/10/31 04:06:19;;;;;;;6.60;1.67;;;;;;;19.07;74.67;99651.72;4929524;28;20049;-79
2023/10/31 04:08:52;;;;;;;3.00;1.80;;;;;;;19.03;74.89;99650.50;4936446;28;20041;-79
2023/10/31 04:11:19;;;;;;;6.18;1.52;;;;;;;18.81;73.95;99650.00;4956263;28;20194;-79
2023/10/31 04:13:48;;;;;;;4.47;1.23;;;;;;;19.06;74.13;99669.75;4951246;28;20523;-80
2023/10/31 04:16:16;;;;;;;8.35;1.90;;;;;;;19.07;73.92;99684.00;4969778;28;20272;-78
2023/10/31 04:18:43;;;;;;;6.65;1.70;;;;;;;19.34;71.61;99660.47;4937471;28;20068;-78
2023/10/31 04:21:09;;;;;;;5.85;1.42;;;;;;;19.10;71.27;99660.22;4935082;28;20381;-79
2023/10/31 04:23:36;;;;;;;9.57;2.03;;;;;;;19.16;71.61;99690.81;4934765;28;20115;-77
2023/10/31 04:26:05;;;;;;;3.25;1.58;;;;;;;18.82;72.27;99667.78;4980670;28;20297;-78
2023/10/31 04:28:32;;;;;;;1.50;1.35;;;;;;;18.78;71.98;99662.00;4964102;28;20055;-78
2023/10/31 04:30:59;;;;;;;3.97;1.65;;;;;;;18.81;72.29;99666.13;4972802;28;20095;-78
2023/10/31 04:33:28;;;;;;;5.03;2.00;;;;;;;18.95;72.24;99695.44;4983882;28;20714;-78
2023/10/31 04:35:55;;;;;;;3.22;1.30;;;;;;;18.66;72.12;99653.72;4942829;28;20876;-79
2023/10/31 04:38:22;;;;;;;5.00;1.48;;;;;;;19.19;69.13;99663.47;4948509;28;20111;-79
2023/10/31 04:40:51;;;;;;;5.07;1.40;;;;;;;19.04;67.83;99641.41;4936050;28;20265;-79
2023/10/31 04:43:19;;;;;;;7.55;1.77;;;;;;;18.75;70.32;99577.19;4951372;28;20367;-80
2023/10/31 04:45:46;;;;;;;4.72;1.55;;;;;;;19.07;71.07;99635.59;4973263;28;20053;-80
2023/10/31 04:48:13;;;;;;;4.32;1.40;;;;;;;19.30;69.05;99614.34;4977261;28;20454;-78
2023/10/31 04:50:40;;;;;;;2.88;1.10;;;;;;;19.36;69.41;99621.53;4961487;28;20041;-78
2023/10/31 04:53:10;;;;;;;7.07;1.55;;;;;;;19.05;68.63;99600.00;4962360;28;20499;-79
2023/10/31 04:55:37;;;;;;;2.88;1.33;;;;;;;18.71;70.35;99538.31;4933375;28;20052;-78
2023/10/31 04:58:04;;;;;;;6.55;1.80;;;;;;;19.28;70.23;99612.91;4963839;28;20041;-80
2023/10/31 05:00:32;;;;;;;2.58;1.13;;;;;;;19.03;68.34;99577.88;4964288;28;20057;-80
2023/10/31 05:03:05;;;;;;;3.90;1.42;;;;;;;19.34;67.69;99614.72;4957385;28;20528;-80
2023/10/31 05:05:32;;;;;;;5.15;1.58;;;;;;;19.03;66.00;99602.09;4964436;28;20137;-79
2023/10/31 05:07:59;;;;;;;4.05;1.35;;;;;;;19.01;67.18;99618.47;4968984;28;20046;-78
2023/10/31 05:10:26;;;;;;;5.97;1.33;;;;;;;18.70;65.96;99605.75;4968963;28;20411;-78
2023/10/31 05:12:53;;;;;;;8.18;1.15;;;;;;;18.53;68.50;99595.47;4966449;28;20053;-78
2023/10/31 05:15:23;;;;;;;4.05;1.48;;;;;;;18.30;68.31;99579.88;4959989;28;20054;-80
2023/10/31 05:17:50;;;;;;;3.75;1.40;;;;;;;18.52;68.57;99615.34;4972308;28;20051;-79
2023/10/31 05:20:17;;;;;;;5.30;1.35;;;;;;;18.24;69.81;99579.88;4947407;28;20354;-78
2023/10/31 05:22:47;;;;;;;3.45;1.27;;;;;;;18.33;68.21;99610.84;4956233;28;20042;-79
2023/10/31 05:25:17;;;;;;;5.50;1.70;;;;;;;18.43;69.63;99611.22;4969462;28;20408;-79
2023/10/31 05:27:44;;;;;;;3.30;1.00;;;;;;;18.47;69.40;99614.31;4978140;28;20049;-79
2023/10/31 05:30:16;;;;;;;5.47;1.73;;;;;;;18.13;69.06;99552.66;4965809;28;20053;-77
2023/10/31 05:32:42;;;;;;;3.60;1.13;;;;;;;18.38;67.16;99572.63;4969380;28;20167;-79
2023/10/31 05:35:10;;;;;;;6.88;1.73;;;;;;;18.51;68.51;99597.56;4976025;28;20480;-80
2023/10/31 05:37:37;;;;;;;3.33;1.23;;;;;;;18.42;67.38;99587.25;4959263;28;20108;-77
2023/10/31 05:40:05;;;;;;;5.25;1.73;;;;;;;18.31;68.93;99612.94;4956449;28;20257;-78
2023/10/31 05:42:36;;;;;;;5.55;2.35;;;;;;;18.22;67.00;99603.44;4966490;28;20282;-78
2023/10/31 05:45:09;;;;;;;5.88;1.25;;;;;;;18.25;70.46;99581.53;4965069;28;20133;-79
2023/10/31 05:47:39;;;;;;;5.78;1.70;;;;;;;18.44;70.88;99596.75;4967518;28;20076;-78
2023/10/31 05:50:07;;;;;;;11.65;2.22;;;;;;;18.43;67.47;99588.91;4969547;28;20045;-80
2023/10/31 05:52:39;;;;;;;8.27;2.00;;;;;;;18.34;67.53;99588.31;4972305;28;20046;-80
2023/10/31 05:55:08;;;;;;;11.38;1.83;;;;;;;18.26;65.78;99577.81;4966540;28;20054;-77
2023/10/31 05:57:35;;;;;;;5.93;1.23;;;;;;;18.37;66.85;99614.75;4969526;28;20427;-80
2023/10/31 06:00:05;;;;;;;12.30;1.60;;;;;;;18.38;62.68;99624.47;4961924;28;20104;-79
2023/10/31 06:02:34;;;;;;;9.07;3.35;;;;;;;17.99;63.13;99577.88;4954368;28;20054;-78
2023/10/31 06:05:01;;;;;;;5.15;1.45;;;;;;;18.10;63.97;99601.38;4949684;28;20087;-79
2023/10/31 06:07:30;;;;;;;9.35;2.08;;;;;;;18.06;64.80;99616.28;4950021;28;20050;-79
2023/10/31 06:09:58;;;;;;;6.10;2.38;;;;;;;18.08;64.45;99633.03;4954022;28;20050;-81
2023/10/31 06:12:27;;;;;;;4.13;1.85;;;;;;;18.02;67.68;99641.91;4978516;28;20129;-79
2023/10/31 06:14:53;;;;;;;8.38;2.08;;;;;;;17.98;64.20;99698.91;4976112;28;20221;-78
2023/10/31 06:17:20;;;;;;;6.32;1.92;;;;;;;18.02;66.10;99700.97;4978171;28;20355;-78
2023/10/31 06:19:47;;;;;;;2.60;1.10;;;;;;;18.22;59.20;99722.44;4975594;28;20057;-79
2023/10/31 06:22:19;;;;;;;3.35;1.38;;;;;;;18.38;62.58;99715.03;4974106;28;20061;-79
2023/10/31 06:24:48;;;;;;;8.07;1.83;;;;;;;18.52;62.35;99738.97;4939030;28;20452;-77
2023/10/31 06:27:16;;;;;;;10.90;1.40;;;;;;;18.42;62.79;99721.59;4940334;28;20096;-80
2023/10/31 06:29:43;;;;;;;4.35;1.10;;;;;;;18.51;60.21;99758.81;4952920;28;20066;-78
2023/10/31 06:32:36;;;;;;;2.47;1.40;;;;;;;18.57;59.56;99784.84;4950074;28;20515;-79
2023/10/31 06:35:07;;;;;;;6.93;1.90;;;;;;;18.50;63.07;99778.66;4953676;28;20053;-78
2023/10/31 06:37:34;;;;;;;4.07;1.40;;;;;;;18.58;62.81;99796.44;4982924;28;20053;-78
2023/10/31 06:40:01;;;;;;;4.53;1.10;;;;;;;18.01;57.00;99703.88;4966118;28;20054;-77
2023/10/31 06:42:28;;;;;;;5.93;1.00;;;;;;;18.60;59.94;99804.31;4967091;28;20077;-78
2023/10/31 06:44:55;;;;;;;4.78;1.48;;;;;;;19.00;61.64;99808.59;4965192;28;20304;-78
2023/10/31 06:47:23;;;;;;;6.40;1.50;;;;;;;18.96;60.92;99804.69;4961504;28;20277;-78
2023/10/31 06:49:51;;;;;;;4.90;1.27;;;;;;;18.66;60.58;99755.06;4975060;28;20447;-80
2023/10/31 06:52:18;;;;;;;6.18;1.38;;;;;;;19.08;60.78;99801.31;4964631;28;20076;-78
2023/10/31 06:54:45;;;;;;;2.83;1.33;;;;;;;18.91;60.41;99782.13;4964717;28;20453;-78
2023/10/31 06:57:16;;;;;;;1.92;1.10;;;;;;;18.95;58.37;99769.91;4953976;28;20108;-80
2023/10/31 06:59:42;;;;;;;3.13;1.38;;;;;;;18.83;61.98;99764.34;4939048;28;20050;-78
2023/10/31 07:02:10;;;;;;;4.00;1.27;;;;;;;18.47;58.24;99746.00;4911219;28;1389711;-78
2023/10/31 07:04:36;;;;;;;4.53;1.10;;;;;;;18.96;62.54;99831.56;4952996;28;20072;-80
2023/10/31 07:07:03;;;;;;;3.40;0.95;;;;;;;18.89;61.74;99825.38;4942615;28;20336;-77
2023/10/31 07:09:30;;;;;;;6.53;1.40;;;;;;;18.82;60.30;99834.50;4950000;28;20104;-78
2023/10/31 07:11:57;;;;;;;7.07;1.60;;;;;;;18.96;58.82;99852.25;4953358;28;20590;-76
2023/10/31 07:14:24;;;;;;;6.10;1.33;;;;;;;19.03;62.74;99850.41;4978012;28;20358;-77
2023/10/31 07:16:50;;;;;;;7.95;1.17;;;;;;;19.00;59.91;99853.47;4974964;28;20052;-79
2023/10/31 07:19:18;;;;;;;6.80;1.90;;;;;;;18.93;58.97;99855.34;4976113;28;20080;-78
2023/10/31 07:21:45;;;;;;;3.15;0.80;;;;;;;18.99;61.21;99852.66;4982405;28;20058;-77
2023/10/31 07:24:12;;;;;;;4.07;1.20;;;;;;;18.95;62.21;99862.19;4968677;28;20576;-78
2023/10/31 07:26:43;;;;;;;5.30;1.45;;;;;;;19.03;63.03;99858.47;4965092;28;20476;-79
2023/10/31 07:29:11;;;;;;;9.43;1.83;;;;;;;19.10;62.84;99871.88;4971551;28;20066;-77
2023/10/31 07:31:39;;;;;;;2.83;1.08;;;;;;;19.11;63.68;99865.47;4958095;28;20056;-79
2023/10/31 07:34:06;;;;;;;4.00;1.23;;;;;;;18.82;61.18;99818.38;4944643;28;20057;-77
2023/10/31 07:36:36;;;;;;;6.20;1.52;;;;;;;18.99;60.98;99859.91;4938040;28;20839;-79
2023/10/31 07:39:08;;;;;;;5.55;1.48;;;;;;;18.97;62.67;99868.19;4956402;28;20052;-77
2023/10/31 07:41:43;;;;;;;11.30;2.13;;;;;;;18.96;59.93;99869.22;4963375;28;20054;-77
2023/10/31 07:44:14;;;;;;;7.10;1.50;;;;;;;18.93;62.15;99863.41;4939525;28;20056;-79
2023/10/31 07:46:41;;;;;;;10.93;1.40;;;;;;;19.10;60.22;99888.03;4943358;28;20089;-76
2023/10/31 07:49:08;;;;;;;4.70;1.30;;;;;;;19.55;58.26;99890.81;4969135;28;20561;-77
2023/10/31 07:51:35;;;;;;;6.18;1.20;;;;;;;20.03;62.07;99898.50;4934868;28;20057;-78
2023/10/31 07:54:02;;;;;;;12.38;2.20;;;;;;;19.78;61.41;99872.34;4954263;28;20459;-78
2023/10/31 07:56:32;;;;;;;8.95;2.45;;;;;;;19.68;56.81;99892.66;4950055;28;20050;-79
2023/10/31 07:58:59;;;;;;;13.65;2.30;;;;;;;19.72;56.46;99899.28;4974744;28;20050;-77
2023/10/31 08:01:26;;;;;;;9.38;2.25;;;;;;;19.55;55.71;99904.28;4977643;28;20435;-78
2023/10/31 08:03:53;;;;;;;15.85;2.72;;;;;;;19.48;54.54;99925.00;4970537;28;20045;-76
2023/10/31 08:06:23;;;;;;;12.07;1.88;;;;;;;19.43;54.61;99925.63;4983186;28;20045;-77
2023/10/31 08:08:51;;;;;;;9.50;1.80;;;;;;;19.38;54.80;99953.19;4986090;28;20339;-77
2023/10/31 08:11:24;;;;;;;11.82;2.40;;;;;;;19.48;54.45;99957.31;4985706;28;20052;-78
2023/10/31 08:13:53;;;;;;;4.85;1.00;;;;;;;19.41;52.78;100025.41;4952462;28;20305;-77
2023/10/31 08:16:26;;;;;;;8.35;1.27;;;;;;;18.87;53.29;100052.53;4991547;28;20045;-77
2023/10/31 08:18:57;;;;;;;4.20;1.58;;;;;;;17.75;58.86;99938.22;4996021;28;20487;-77
2023/10/31 08:21:33;;;;;;;4.20;0.68;;;;;;;17.98;60.57;100107.91;4987608;28;20053;-77
2023/10/31 08:24:05;;;;;;;10.68;1.15;;;;;;;17.15;63.16;100130.94;4973743;28;20237;-77
2023/10/31 08:26:32;;;;;;;2.92;0.63;;;;;;;16.23;65.83;100065.31;4975183;28;20068;-76
2023/10/31 08:29:05;;;;;;;3.95;0.70;;;;;;;15.80;68.56;100051.75;4941567;28;20661;-78
2023/10/31 08:31:35;;;;;;;3.35;0.70;;;;;;;15.72;69.85;100108.03;4936961;28;20050;-79
2023/10/31 08:34:02;;;;;;;3.53;0.85;;;;;;;15.46;71.76;100116.44;4922088;28;20153;-77
2023/10/31 08:36:31;;;;;;;2.00;0.80;;;;;;;15.35;73.82;100141.78;4929956;28;20133;-77
2023/10/31 08:38:57;;;;;;;8.93;0.85;;;;;;;15.40;73.89;100107.28;4966187;28;20574;-76
2023/10/31 08:41:24;;;;;;;1.85;0.50;;;;;;;14.69;71.47;100023.78;4960757;28;20061;-76
2023/10/31 08:43:51;;;;;;;0.60;0.40;;;;;;;14.90;73.30;100105.97;4967524;28;20061;-77
2023/10/31 08:46:23;;;;;;;2.25;0.57;;;;;;;14.45;74.47;100048.78;4948341;28;20484;-78
2023/10/31 08:48:57;;;;;;;2.25;0.60;;;;;;;14.81;75.80;100102.53;4929740;28;20081;-78
2023/10/31 08:51:31;;;;;;;3.10;0.50;;;;;;;14.74;75.15;100053.47;4959887;28;20182;-78
2023/10/31 08:53:59;;;;;;;2.78;0.43;;;;;;;15.24;75.45;100100.22;4962751;28;20543;-76
2023/10/31 08:56:27;;;;;;;4.03;0.70;;;;;;;15.52;76.15;100103.19;4964232;28;20526;-76
2023/10/31 08:58:54;;;;;;;0.80;0.20;;;;;;;15.59;72.53;100080.03;4962418;28;20564;-76
2023/10/31 09:01:22;;;;;;;2.88;0.80;;;;;;;15.89;71.53;100090.81;4990911;28;20053;-77
2023/10/31 09:03:49;;;;;;;3.13;0.90;;;;;;;15.88;69.81;100053.53;4970411;28;20558;-76
2023/10/31 09:06:16;;;;;;;1.02;0.30;;;;;;;16.20;71.44;100081.75;4962187;28;20054;-77
2023/10/31 09:08:50;;;;;;;2.05;0.82;;;;;;;16.47;69.84;100095.50;4968365;28;20224;-77
2023/10/31 09:11:19;;;;;;;3.72;0.50;;;;;;;16.43;68.04;100074.44;4981548;28;20526;-76
2023/10/31 09:13:50;;;;;;;0.90;0.50;;;;;;;16.82;67.21;100112.63;4962270;28;20053;-78
2023/10/31 09:16:26;;;;;;;2.63;0.40;;;;;;;16.74;66.84;100056.44;4973223;28;20392;-77
2023/10/31 09:18:54;;;;;;;1.90;0.63;;;;;;;17.15;65.31;100110.31;4983695;28;20084;-77
2023/10/31 09:21:22;;;;;;;2.40;0.32;;;;;;;17.23;61.41;100079.84;4983500;28;20073;-78
2023/10/31 09:23:50;;;;;;;1.02;0.43;;;;;;;17.57;61.98;100111.28;4970341;28;20440;-79
2023/10/31 09:26:17;;;;;;;2.35;0.43;;;;;;;17.67;59.11;100110.97;4975757;28;20128;-78
2023/10/31 09:28:49;;;;;;;1.55;0.50;;;;;;;17.70;56.90;100100.69;4963621;28;20053;-80
2023/10/31 09:31:24;;;;;;;0.95;0.30;;;;;;;17.92;56.15;100122.16;4967441;28;20142;-79
2023/10/31 09:33:54;;;;;;;1.95;0.80;;;;;;;18.03;57.52;100116.22;4973319;28;20509;-78
2023/10/31 09:36:21;;;;;;;2.58;0.40;;;;;;;18.13;58.91;100115.84;4954371;28;20499;-78
2023/10/31 09:38:51;;;;;;;3.10;0.45;;;;;;;18.28;56.06;100088.88;4961927;28;20136;-80
2023/10/31 09:41:18;;;;;;;0.35;0.20;;;;;;;18.45;55.56;100111.72;4972555;28;20052;-78
2023/10/31 09:43:45;;;;;;;4.03;0.45;;;;;;;18.58;52.26;100127.06;4982586;28;20053;-78
2023/10/31 09:46:12;;;;;;;0.63;0.40;;;;;;;18.64;51.78;100091.31;4974806;28;20053;-79
2023/10/31 09:48:39;;;;;;;1.10;0.50;;;;;;;18.86;52.26;100120.75;4974582;28;20049;-77
2023/10/31 09:51:11;;;;;;;2.30;0.52;;;;;;;18.95;53.12;100103.41;4973090;28;20077;-78
2023/10/31 09:53:44;;;;;;;0.35;0.30;;;;;;;19.00;50.31;100101.78;4991971;28;20327;-79
2023/10/31 09:56:10;;;;;;;1.95;0.52;;;;;;;19.14;50.80;100118.78;4971903;28;20068;-78
2023/10/31 09:58:41;;;;;;;4.05;0.30;;;;;;;19.29;52.53;100120.44;4965865;28;20049;-80
2023/10/31 10:01:08;;;;;;;0.68;0.38;;;;;;;19.45;53.25;100127.31;4975260;28;20077;-79
2023/10/31 10:03:44;;;;;;;1.15;0.47;;;;;;;19.48;51.23;100113.44;4968332;28;20227;-81
2023/10/31 10:06:21;;;;;;;1.00;0.40;;;;;;;19.58;48.96;100119.22;4965596;28;20573;-80
2023/10/31 10:08:57;;;;;;;1.15;0.30;;;;;;;19.75;48.57;100135.81;4941868;28;20037;-79
2023/10/31 10:11:46;;;;;;;1.02;0.30;;;;;;;19.88;48.33;100137.69;4925850;28;20380;-80
2023/10/31 10:14:28;;;;;;;2.88;0.47;;;;;;;19.95;45.54;100141.19;4951423;28;20049;-79
2023/10/31 10:16:55;;;;;;;4.45;0.52;;;;;;;20.01;46.45;100145.75;4970991;28;20045;-79
2023/10/31 10:19:27;;;;;;;0.90;0.40;;;;;;;20.09;48.02;100137.44;4974142;28;20103;-81
2023/10/31 10:22:02;;;;;;;2.20;0.20;;;;;;;19.97;45.36;100109.50;4963927;28;20407;-79
2023/10/31 10:24:35;;;;;;;0.75;0.40;;;;;;;20.10;46.72;100135.56;4976682;28;20669;-79
2023/10/31 10:27:10;;;;;;;1.45;0.28;;;;;;;20.16;45.83;100137.44;4976701;28;20050;-79
2023/10/31 10:29:45;;;;;;;0.40;0.30;;;;;;;20.08;45.25;100133.09;4948676;28;20068;-79
2023/10/31 10:32:12;;;;;;;1.45;0.40;;;;;;;20.04;44.76;100119.22;4967163;28;20072;-79
2023/10/31 10:34:49;;;;;;;0.13;0.13;;;;;;;20.22;44.85;100158.13;4932187;28;20448;-79
2023/10/31 10:37:33;;;;;;;2.78;0.38;;;;;;;20.23;44.06;100165.19;4936812;28;20053;-79
2023/10/31 10:40:22;;;;;;;0.30;0.30;;;;;;;20.12;45.40;100152.34;4925849;28;20409;-77
2023/10/31 10:43:13;;;;;;;0.40;0.35;;;;;;;19.99;45.31;100143.25;4940574;28;20579;-79
2023/10/31 10:45:46;;;;;;;1.17;0.20;;;;;;;19.38;44.60;100063.53;4953508;28;20058;-77
2023/10/31 10:48:19;;;;;;;0.47;0.30;;;;;;;19.89;44.81;100164.41;4958634;28;20045;-77
2023/10/31 10:50:57;;;;;;;1.00;0.30;;;;;;;19.85;46.39;100169.41;4985250;28;20049;-78
2023/10/31 10:53:29;;;;;;;0.82;0.30;;;;;;;19.71;46.19;100139.97;4974347;28;20053;-80
2023/10/31 10:56:06;;;;;;;0.60;0.40;;;;;;;19.69;45.62;100148.28;4978892;28;20049;-78
2023/10/31 10:59:20;;;;;;;0.73;0.50;;;;;;;19.47;44.92;100118.00;4986490;28;20372;-80
2023/10/31 11:01:51;;;;;;;0.50;0.50;;;;;;;19.71;44.77;100156.97;4986159;28;20117;-79
2023/10/31 11:04:19;;;;;;;0.90;0.30;;;;;;;19.77;46.23;100163.38;4956192;28;20343;-78
2023/10/31 11:06:46;;;;;;;2.25;0.50;;;;;;;19.54;44.81;100134.97;4982064;28;20558;-80
2023/10/31 11:09:14;;;;;;;1.42;0.30;;;;;;;19.62;45.08;100158.16;4971437;28;20488;-79
2023/10/31 11:11:48;;;;;;;0.98;0.40;;;;;;;19.62;46.71;100164.38;4977418;28;20056;-79
2023/10/31 11:14:16;;;;;;;0.25;0.20;;;;;;;19.58;46.44;100154.22;4960152;28;20131;-78
2023/10/31 11:16:56;;;;;;;0.65;0.30;;;;;;;19.65;45.19;100161.25;4968119;28;20053;-79
2023/10/31 11:19:24;;;;;;;0.77;0.40;;;;;;;19.69;45.85;100175.19;4931473;28;20550;-79
2023/10/31 11:22:02;;;;;;;1.38;0.57;;;;;;;19.74;46.08;100172.72;4941224;28;20054;-79
2023/10/31 11:24:32;;;;;;;0.73;0.40;;;;;;;19.73;45.81;100172.91;4981745;28;20601;-78
2023/10/31 11:27:04;;;;;;;0.88;0.38;;;;;;;19.71;46.29;100178.50;4956556;28;20500;-78
2023/10/31 11:29:31;;;;;;;;;;;;;;;19.72;45.82;100177.47;4938679;28;20050;-78
2023/10/31 11:31:59;;;;;;;2.00;0.40;;;;;;;19.41;43.62;100114.25;4928632;28;19922;-80
2023/10/31 11:34:32;;;;;;;1.77;0.35;;;;;;;19.65;47.00;100163.97;4943892;28;20446;-79
2023/10/31 11:37:26;;;;;;;0.90;0.35;;;;;;;19.85;43.61;100168.56;4939003;28;20051;-80
2023/10/31 11:40:15;;;;;;;0.98;0.38;;;;;;;19.92;44.11;100163.16;4924714;28;20508;-78
2023/10/31 11:42:49;;;;;;;0.95;0.40;;;;;;;19.86;46.82;100170.22;4949180;28;20046;-80